Overview Statistics Trail Chart Weather Telemetry Raw packets
 

This is the latest recevied weather packets stored in our database for station/object KD2FKI. If no packets are shown the sender has not sent any weather packets the latest 10 day(s).

<< 1 2 3 4 >>
Time Temp. Humidity Pressure Rain* Wind** Luminosity Snow
1778217642 10.56° C 75% - 0 mm - - -
1778217032 10° C 82% - 0 mm - - -
1778216440 8.89° C 94% - 0 mm - - -
1778215845 8.33° C 92% - 0 mm - - -
1778215238 8.89° C 92% - 0 mm - - -
1778214644 8.89° C 92% - 0 mm - - -
1778214035 8.89° C 91% - 0 mm - - -
1778213441 9.44° C 88% - 0 mm - - -
1778212833 10° C 87% - 0 mm - - -
1778212238 10° C 87% - 0 mm - - -
1778211646 10.56° C 87% - 0 mm - - -
1778211054 10.56° C 87% - 0 mm - - -
1778210444 11.11° C 86% - 0 mm - - -
1778209834 11.11° C 85% - 0 mm - - -
1778209241 11.11° C 84% - 0 mm - - -
1778208631 11.67° C 82% - 0 mm - - -
1778208038 11.67° C 81% - 0 mm - - -
1778207447 12.22° C 80% - 0 mm - - -
1778206836 12.22° C 80% - 0 mm - - -
1778206244 12.22° C 78% - 0 mm - - -
1778205638 12.78° C 78% - 0 mm - - -
1778205041 12.78° C 76% - 0 mm - - -
1778204432 13.33° C 76% - 0 mm - - -
1778203840 13.33° C 75% - 0 mm - - -
1778203229 13.33° C 73% - 0 mm - - -

* Rain latest hour (hover to see other rain measurements)
** Current wind speed in m/s (hover to see current wind gust speed)